createdAt,value
2018-06-02T00:00:49.054Z,8.20
2018-06-02T00:03:15.219Z,7.53
2018-06-02T00:05:41.298Z,7.10
2018-06-02T00:08:07.369Z,7.17
2018-06-02T00:10:33.466Z,13.10
2018-06-02T00:12:59.540Z,13.87
2018-06-02T00:15:25.631Z,7.43
2018-06-02T00:17:51.705Z,8.40
2018-06-02T00:20:17.802Z,8.63
2018-06-02T00:22:43.901Z,7.37
2018-06-02T00:25:10.729Z,10.30
2018-06-02T00:27:36.826Z,6.00
2018-06-02T00:30:02.913Z,6.30
2018-06-02T00:32:28.993Z,9.10
2018-06-02T00:34:55.796Z,6.47
2018-06-02T00:37:21.880Z,7.03
2018-06-02T00:39:47.957Z,7.53
2018-06-02T00:42:14.076Z,10.17
2018-06-02T00:44:40.149Z,9.67
2018-06-02T00:47:06.232Z,9.90
2018-06-02T00:49:33.049Z,8.10
2018-06-02T00:51:59.137Z,9.30
2018-06-02T00:54:37.633Z,7.43
2018-06-02T00:57:03.730Z,7.03
2018-06-02T00:59:29.814Z,6.33
2018-06-02T01:01:55.898Z,7.77
2018-06-02T01:04:21.990Z,8.10
2018-06-02T01:06:48.877Z,6.60
2018-06-02T01:09:14.961Z,9.40
2018-06-02T01:11:47.126Z,5.60
2018-06-02T01:14:13.197Z,5.93
2018-06-02T01:16:39.273Z,10.43
2018-06-02T01:19:05.351Z,6.13
2018-06-02T01:21:31.419Z,7.17
2018-06-02T01:23:57.503Z,7.63
2018-06-02T01:26:23.573Z,6.60
2018-06-02T01:28:49.673Z,13.13
2018-06-02T01:31:15.756Z,7.17
2018-06-02T01:33:41.865Z,7.50
2018-06-02T01:36:07.954Z,10.37
2018-06-02T01:38:34.776Z,6.73
2018-06-02T01:41:00.873Z,10.00
2018-06-02T01:43:27.020Z,12.67
2018-06-02T01:45:53.139Z,8.90
2018-06-02T01:48:19.237Z,7.53
2018-06-02T01:50:45.328Z,8.87
2018-06-02T01:53:12.179Z,8.60
2018-06-02T01:55:38.281Z,11.03
2018-06-02T01:58:05.124Z,10.40
2018-06-02T02:00:31.229Z,10.50
2018-06-02T02:02:57.326Z,9.57
2018-06-02T02:05:24.238Z,7.00
2018-06-02T02:07:50.340Z,14.13
2018-06-02T02:10:17.177Z,7.60
2018-06-02T02:12:44.009Z,7.57
2018-06-02T02:15:10.110Z,10.73
2018-06-02T02:17:36.192Z,7.43
2018-06-02T02:20:02.289Z,9.13
2018-06-02T02:22:28.397Z,8.53
2018-06-02T02:24:55.283Z,9.77
2018-06-02T02:27:21.380Z,7.30
2018-06-02T02:29:48.192Z,9.20
2018-06-02T02:32:14.306Z,7.90
2018-06-02T02:34:40.404Z,9.03
2018-06-02T02:37:06.505Z,8.90
2018-06-02T02:39:32.592Z,5.50
2018-06-02T02:41:59.431Z,11.43
2018-06-02T02:44:25.544Z,9.30
2018-06-02T02:46:51.687Z,8.00
2018-06-02T02:49:17.782Z,7.30
2018-06-02T02:51:43.889Z,9.73
2018-06-02T02:54:10.064Z,6.37
2018-06-02T02:56:36.160Z,7.07
2018-06-02T02:59:02.261Z,10.67
2018-06-02T03:01:28.392Z,8.20
2018-06-02T03:03:54.490Z,6.87
2018-06-02T03:06:21.330Z,7.63
2018-06-02T03:08:47.430Z,8.13
2018-06-02T03:11:13.520Z,6.20
2018-06-02T03:13:40.358Z,6.70
2018-06-02T03:16:06.568Z,9.60
2018-06-02T03:18:32.666Z,9.07
2018-06-02T03:20:59.493Z,8.80
2018-06-02T03:23:25.597Z,6.07
2018-06-02T03:25:51.687Z,8.70
2018-06-02T03:28:17.814Z,9.43
2018-06-02T03:30:43.965Z,8.87
2018-06-02T03:33:10.877Z,11.30
2018-06-02T03:35:36.956Z,10.73
2018-06-02T03:38:03.074Z,9.17
2018-06-02T03:40:29.358Z,8.17
2018-06-02T03:42:56.187Z,12.73
2018-06-02T03:45:22.297Z,6.40
2018-06-02T03:47:48.401Z,9.80
2018-06-02T03:50:14.516Z,6.37
2018-06-02T03:52:40.593Z,7.40
2018-06-02T03:55:06.689Z,9.70
2018-06-02T03:57:33.546Z,11.43
2018-06-02T04:00:00.389Z,8.57
2018-06-02T04:02:26.465Z,8.00
2018-06-02T04:04:52.566Z,7.37
2018-06-02T04:07:18.652Z,6.53
2018-06-02T04:09:44.760Z,13.50
2018-06-02T04:12:11.606Z,7.13
2018-06-02T04:14:37.808Z,9.03
2018-06-02T04:17:03.888Z,8.10
2018-06-02T04:19:30.720Z,9.67
2018-06-02T04:21:56.823Z,6.37
2018-06-02T04:24:22.916Z,13.43
2018-06-02T04:26:49.018Z,6.17
2018-06-02T04:29:15.115Z,8.60
2018-06-02T04:31:41.225Z,10.30
2018-06-02T04:34:07.308Z,12.73
2018-06-02T04:36:33.413Z,8.27
2018-06-02T04:39:00.312Z,10.80
2018-06-02T04:41:26.417Z,9.30
2018-06-02T04:43:53.249Z,9.67
2018-06-02T04:46:19.339Z,8.20
2018-06-02T04:48:45.425Z,9.50
2018-06-02T04:51:11.529Z,9.67
2018-06-02T04:53:37.610Z,11.80
2018-06-02T04:56:03.728Z,9.13
2018-06-02T04:58:29.823Z,12.73
2018-06-02T05:00:55.925Z,11.43
2018-06-02T05:03:22.032Z,10.57
2018-06-02T05:05:48.116Z,10.37
2018-06-02T05:08:14.936Z,10.63
2018-06-02T05:10:41.013Z,11.27
2018-06-02T05:13:07.863Z,9.43
2018-06-02T05:15:34.680Z,8.53
2018-06-02T05:18:00.782Z,11.20
2018-06-02T05:20:26.863Z,12.10
2018-06-02T05:22:52.953Z,9.23
2018-06-02T05:25:19.028Z,6.87
2018-06-02T05:27:45.865Z,7.77
2018-06-02T05:30:11.953Z,9.80
2018-06-02T05:32:38.049Z,7.70
2018-06-02T05:35:04.132Z,6.87
2018-06-02T05:37:30.245Z,6.57
2018-06-02T05:39:56.352Z,9.33
2018-06-02T05:42:22.444Z,7.57
2018-06-02T05:44:48.545Z,7.47
2018-06-02T05:47:14.636Z,7.30
2018-06-02T05:49:41.480Z,13.80
2018-06-02T05:52:07.559Z,8.33
2018-06-02T05:54:33.698Z,8.17
2018-06-02T05:56:59.733Z,6.63
2018-06-02T05:59:25.837Z,7.43
2018-06-02T06:01:52.713Z,8.20
2018-06-02T06:04:18.807Z,12.37
2018-06-02T06:06:44.889Z,12.00
2018-06-02T06:09:10.973Z,7.80
2018-06-02T06:11:37.072Z,8.40
2018-06-02T06:14:03.164Z,9.80
2018-06-02T06:16:29.253Z,7.57
2018-06-02T06:18:55.354Z,6.97
2018-06-02T06:21:21.454Z,9.53
2018-06-02T06:23:47.536Z,7.70
2018-06-02T06:26:14.383Z,11.93
2018-06-02T06:28:40.495Z,8.30
2018-06-02T06:31:06.594Z,6.73
2018-06-02T06:33:32.679Z,8.60
2018-06-02T06:35:58.788Z,9.00
2018-06-02T06:38:24.876Z,7.90
2018-06-02T06:40:50.989Z,9.10
2018-06-02T06:43:17.073Z,9.40
2018-06-02T06:45:43.912Z,8.57
2018-06-02T06:48:09.993Z,8.17
2018-06-02T06:50:36.132Z,9.07
2018-06-02T06:53:02.988Z,6.83
2018-06-02T06:55:29.078Z,8.83
2018-06-02T06:57:55.168Z,9.47
2018-06-02T07:00:21.252Z,7.63
2018-06-02T07:02:47.333Z,9.17
2018-06-02T07:05:13.431Z,7.27
2018-06-02T07:07:40.276Z,7.70
2018-06-02T07:10:06.377Z,9.00
2018-06-02T07:12:32.484Z,9.03
2018-06-02T07:14:59.312Z,7.57
2018-06-02T07:17:25.425Z,5.60
2018-06-02T07:19:51.553Z,8.73
2018-06-02T07:22:17.724Z,7.77
2018-06-02T07:24:43.807Z,11.17
2018-06-02T07:27:09.905Z,6.60
2018-06-02T07:29:35.989Z,8.40
2018-06-02T07:32:02.164Z,6.70
2018-06-02T07:34:28.278Z,6.77
2018-06-02T07:36:54.392Z,8.23
2018-06-02T07:39:20.588Z,7.67
2018-06-02T07:41:46.677Z,6.50
2018-06-02T07:44:12.788Z,8.37
2018-06-02T07:46:39.611Z,6.87
2018-06-02T07:49:05.718Z,6.80
2018-06-02T07:51:31.808Z,7.93
2018-06-02T07:53:57.905Z,6.40
2018-06-02T07:56:23.997Z,7.23
2018-06-02T07:58:50.108Z,6.50
2018-06-02T08:01:16.203Z,7.80
2018-06-02T08:03:42.370Z,7.17
2018-06-02T08:06:08.451Z,4.60
2018-06-02T08:08:35.351Z,5.47
2018-06-02T08:11:02.149Z,9.17
2018-06-02T08:13:28.333Z,6.13
2018-06-02T08:15:54.437Z,5.40
2018-06-02T08:18:21.328Z,5.60
2018-06-02T08:20:47.423Z,8.13
2018-06-02T08:23:13.500Z,5.37
2018-06-02T08:25:39.591Z,7.63
2018-06-02T08:28:05.680Z,6.20
2018-06-02T08:30:31.768Z,5.73
2018-06-02T08:32:57.859Z,5.80
2018-06-02T08:35:23.952Z,6.23
2018-06-02T08:37:50.053Z,5.00
2018-06-02T08:40:16.151Z,5.23
2018-06-02T08:42:42.232Z,6.03
2018-06-02T08:45:08.323Z,6.20
2018-06-02T08:47:35.162Z,5.53
2018-06-02T08:50:01.373Z,9.93
2018-06-02T08:52:27.456Z,5.10
2018-06-02T08:54:53.531Z,4.33
2018-06-02T08:57:19.635Z,4.90
2018-06-02T08:59:45.710Z,6.33
2018-06-02T09:02:11.809Z,4.70
2018-06-02T09:04:38.629Z,6.77
2018-06-02T09:07:04.721Z,11.20
2018-06-02T09:09:30.792Z,4.40
2018-06-02T09:11:56.900Z,6.23
2018-06-02T09:14:22.989Z,5.87
2018-06-02T09:16:49.089Z,5.40
2018-06-02T09:19:15.247Z,6.07
2018-06-02T09:21:41.403Z,4.40
2018-06-02T09:24:07.470Z,6.00
2018-06-02T09:26:34.303Z,6.90
2018-06-02T09:29:00.422Z,4.37
2018-06-02T09:31:26.545Z,5.07
2018-06-02T09:33:52.953Z,5.20
2018-06-02T09:36:19.794Z,5.37
2018-06-02T09:38:45.892Z,5.70
2018-06-02T09:41:11.998Z,5.50
2018-06-02T09:43:38.100Z,5.50
2018-06-02T09:46:04.212Z,5.17
2018-06-02T09:48:30.318Z,5.80
2018-06-02T09:50:56.421Z,5.40
2018-06-02T09:53:29.575Z,5.57
2018-06-02T09:55:55.721Z,5.00
2018-06-02T09:58:21.865Z,4.60
2018-06-02T10:00:47.965Z,6.10
2018-06-02T10:03:14.808Z,4.83
2018-06-02T10:05:41.644Z,5.50
2018-06-02T10:08:07.748Z,8.43
2018-06-02T10:10:33.901Z,5.93
2018-06-02T10:13:00.696Z,4.63
2018-06-02T10:15:26.793Z,4.27
2018-06-02T10:17:52.916Z,4.83
2018-06-02T10:20:19.769Z,4.20
2018-06-02T10:22:45.881Z,5.23
2018-06-02T10:25:12.724Z,6.30
2018-06-02T10:27:39.568Z,4.07
2018-06-02T10:30:05.652Z,5.60
2018-06-02T10:32:31.741Z,4.00
2018-06-02T10:34:57.853Z,4.70
2018-06-02T10:37:23.959Z,4.20
2018-06-02T10:39:50.055Z,3.33
2018-06-02T10:42:16.284Z,4.70
2018-06-02T10:44:42.361Z,4.90
2018-06-02T10:47:08.440Z,5.40
2018-06-02T10:49:34.532Z,3.73
2018-06-02T10:52:01.360Z,4.30
2018-06-02T10:54:27.466Z,20.40
2018-06-02T10:56:53.614Z,5.27
2018-06-02T10:59:19.745Z,4.20
2018-06-02T11:01:45.861Z,4.93
2018-06-02T11:04:11.976Z,4.17
2018-06-02T11:06:38.877Z,5.40
2018-06-02T11:09:05.012Z,5.27
2018-06-02T11:11:31.095Z,3.93
2018-06-02T11:13:57.208Z,3.53
2018-06-02T11:16:23.300Z,5.03
2018-06-02T11:18:50.184Z,4.00
2018-06-02T11:21:16.293Z,4.50
2018-06-02T11:23:43.133Z,4.13
2018-06-02T11:26:09.222Z,6.60
2018-06-02T11:28:35.334Z,6.30
2018-06-02T11:31:01.417Z,5.30
2018-06-02T11:33:27.524Z,3.83
2018-06-02T11:35:53.649Z,4.20
2018-06-02T11:38:20.506Z,3.73
2018-06-02T11:40:46.619Z,4.33
2018-06-02T11:43:13.456Z,3.43
2018-06-02T11:45:39.561Z,3.43
2018-06-02T11:48:05.662Z,3.40
2018-06-02T11:50:32.527Z,5.00
2018-06-02T11:52:59.358Z,4.40
2018-06-02T11:55:25.457Z,3.57
2018-06-02T11:57:51.567Z,5.80
2018-06-02T12:00:17.701Z,3.67
2018-06-02T12:02:43.885Z,4.13
2018-06-02T12:05:10.010Z,4.70
2018-06-02T12:07:36.138Z,4.50
2018-06-02T12:10:02.435Z,16.43
2018-06-02T12:12:29.355Z,4.43
2018-06-02T12:14:55.440Z,3.77
2018-06-02T12:17:22.408Z,5.53
2018-06-02T12:19:48.742Z,9.63
2018-06-02T12:22:15.572Z,5.20
2018-06-02T12:24:41.789Z,11.23
2018-06-02T12:27:07.882Z,3.80
2018-06-02T12:29:34.720Z,3.70
2018-06-02T12:32:00.832Z,4.13
2018-06-02T12:34:26.962Z,4.70
2018-06-02T12:36:53.053Z,6.53
2018-06-02T12:39:19.928Z,3.67
2018-06-02T12:41:46.214Z,3.80
2018-06-02T12:44:12.486Z,4.07
2018-06-02T12:46:39.332Z,4.13
2018-06-02T12:49:05.609Z,2.70
2018-06-02T12:51:31.701Z,2.90
2018-06-02T12:53:57.792Z,3.17
2018-06-02T12:56:23.885Z,6.40
2018-06-02T12:58:50.159Z,4.03
2018-06-02T13:01:16.249Z,3.97
2018-06-02T13:03:42.356Z,5.07
2018-06-02T13:06:08.453Z,5.80
2018-06-02T13:08:35.296Z,5.73
2018-06-02T13:11:01.403Z,4.80
2018-06-02T13:13:27.492Z,6.23
2018-06-02T13:15:54.335Z,4.20
2018-06-02T13:18:21.185Z,3.73
2018-06-02T13:20:47.277Z,4.60
2018-06-02T13:23:13.374Z,3.67
2018-06-02T13:25:40.233Z,3.70
2018-06-02T13:28:07.083Z,3.67
2018-06-02T13:30:33.917Z,4.40
2018-06-02T13:33:00.013Z,3.00
2018-06-02T13:35:26.111Z,5.40
2018-06-02T13:37:52.946Z,3.43
2018-06-02T13:40:19.078Z,4.53
2018-06-02T13:42:45.177Z,6.30
2018-06-02T13:45:11.264Z,5.53
2018-06-02T13:47:37.349Z,3.27
2018-06-02T13:50:03.512Z,4.53
2018-06-02T13:52:29.609Z,3.80
2018-06-02T13:54:56.452Z,3.50
2018-06-02T13:57:23.286Z,3.17
2018-06-02T13:59:49.408Z,3.03
2018-06-02T14:02:15.493Z,3.57
2018-06-02T14:04:42.324Z,3.23
2018-06-02T14:07:08.414Z,3.90
2018-06-02T14:09:34.536Z,3.40
2018-06-02T14:12:00.612Z,5.20
2018-06-02T14:14:26.705Z,3.47
2018-06-02T14:16:52.814Z,2.60
2018-06-02T14:19:18.901Z,3.37
2018-06-02T14:21:45.012Z,3.73
2018-06-02T14:24:11.133Z,6.53
2018-06-02T14:26:37.253Z,3.37
2018-06-02T14:29:03.346Z,3.90
2018-06-02T14:31:29.475Z,3.57
2018-06-02T14:33:55.584Z,3.00
2018-06-02T14:36:21.680Z,3.73
2018-06-02T14:38:47.782Z,3.53
2018-06-02T14:41:14.628Z,4.03
2018-06-02T14:43:41.486Z,3.40
2018-06-02T14:46:07.566Z,3.53
2018-06-02T14:48:33.644Z,2.67
2018-06-02T14:50:59.760Z,3.23
2018-06-02T14:53:25.848Z,5.53
2018-06-02T14:55:52.675Z,2.80
2018-06-02T14:58:18.788Z,3.47
2018-06-02T15:00:44.909Z,3.10
2018-06-02T15:03:11.034Z,3.20
2018-06-02T15:05:37.105Z,2.70
2018-06-02T15:08:03.213Z,3.97
2018-06-02T15:10:29.297Z,3.17
2018-06-02T15:12:55.388Z,3.00
2018-06-02T15:15:21.465Z,3.50
2018-06-02T15:17:47.609Z,4.00
2018-06-02T15:20:13.667Z,4.80
2018-06-02T15:22:40.518Z,3.13
2018-06-02T15:25:06.601Z,4.20
2018-06-02T15:27:32.697Z,3.57
2018-06-02T15:29:59.520Z,4.40
2018-06-02T15:32:25.607Z,8.80
2018-06-02T15:34:51.688Z,3.30
2018-06-02T15:37:17.769Z,2.90
2018-06-02T15:39:44.607Z,3.20
2018-06-02T15:42:10.766Z,3.47
2018-06-02T15:44:36.829Z,2.90
2018-06-02T15:47:02.918Z,4.20
2018-06-02T15:49:29.001Z,5.73
2018-06-02T15:51:55.084Z,6.03
2018-06-02T15:54:21.276Z,3.10
2018-06-02T15:56:47.348Z,4.00
2018-06-02T15:59:13.457Z,5.77
2018-06-02T16:01:39.553Z,2.50
2018-06-02T16:04:05.651Z,2.80
2018-06-02T16:06:31.737Z,2.70
2018-06-02T16:08:57.833Z,2.87
2018-06-02T16:11:23.915Z,2.33
2018-06-02T16:13:50.756Z,2.80
2018-06-02T16:16:16.902Z,2.60
2018-06-02T16:18:43.033Z,2.80
2018-06-02T16:21:09.116Z,4.70
2018-06-02T16:23:35.196Z,3.83
2018-06-02T16:26:01.278Z,2.37
2018-06-02T16:28:28.112Z,3.50
2018-06-02T16:30:54.200Z,4.43
2018-06-02T16:33:20.276Z,2.57
2018-06-02T16:35:46.373Z,2.43
2018-06-02T16:38:12.457Z,3.13
2018-06-02T16:40:38.556Z,3.90
2018-06-02T16:43:04.645Z,4.40
2018-06-02T16:45:31.472Z,2.30
2018-06-02T16:47:57.556Z,2.50
2018-06-02T16:50:23.658Z,2.50
2018-06-02T16:52:49.742Z,2.90
2018-06-02T16:55:15.853Z,2.70
2018-06-02T16:57:42.710Z,2.40
2018-06-02T17:00:09.570Z,2.93
2018-06-02T17:02:36.391Z,2.03
2018-06-02T17:05:02.505Z,2.20
2018-06-02T17:07:28.611Z,3.00
2018-06-02T17:09:54.782Z,3.03
2018-06-02T17:12:20.876Z,2.33
2018-06-02T17:14:47.768Z,5.57
2018-06-02T17:17:13.856Z,2.53
2018-06-02T17:19:39.937Z,2.60
2018-06-02T17:22:06.033Z,2.43
2018-06-02T17:24:32.133Z,2.53
2018-06-02T17:26:59.082Z,2.70
2018-06-02T17:29:25.271Z,3.30
2018-06-02T17:31:51.372Z,2.40
2018-06-02T17:34:17.453Z,2.27
2018-06-02T17:36:44.387Z,2.77
2018-06-02T17:39:10.648Z,2.67
2018-06-02T17:41:36.757Z,2.90
2018-06-02T17:44:02.882Z,1.73
2018-06-02T17:46:29.016Z,3.87
2018-06-02T17:48:55.108Z,3.23
2018-06-02T17:51:21.197Z,3.63
2018-06-02T17:53:47.324Z,4.00
2018-06-02T17:56:13.412Z,3.20
2018-06-02T17:58:39.521Z,3.07
2018-06-02T18:01:05.628Z,2.97
2018-06-02T18:03:31.732Z,5.10
2018-06-02T18:05:57.829Z,2.17
2018-06-02T18:08:23.928Z,3.03
2018-06-02T18:10:50.813Z,3.00
2018-06-02T18:13:16.904Z,2.67
2018-06-02T18:15:43.002Z,2.17
2018-06-02T18:18:09.102Z,3.00
2018-06-02T18:20:36.057Z,5.30
2018-06-02T18:23:02.910Z,3.17
2018-06-02T18:25:29.804Z,2.77
2018-06-02T18:27:55.949Z,3.30
2018-06-02T18:30:22.154Z,3.07
2018-06-02T18:32:48.994Z,4.60
2018-06-02T18:35:16.013Z,2.93
2018-06-02T18:37:42.125Z,3.57
2018-06-02T18:40:08.573Z,2.73
2018-06-02T18:42:34.696Z,3.83
2018-06-02T18:45:00.785Z,3.27
2018-06-02T18:47:26.932Z,3.87
2018-06-02T18:49:53.121Z,3.37
2018-06-02T18:52:19.268Z,2.87
2018-06-02T18:54:45.369Z,5.40
2018-06-02T18:57:11.560Z,5.53
2018-06-02T18:59:37.644Z,6.73
2018-06-02T19:02:03.920Z,3.70
2018-06-02T19:04:30.072Z,4.03
2018-06-02T19:06:56.162Z,4.87
2018-06-02T19:09:22.996Z,3.63
2018-06-02T19:11:49.125Z,4.07
2018-06-02T19:14:15.602Z,4.83
2018-06-02T19:16:41.952Z,4.30
2018-06-02T19:19:08.162Z,4.40
2018-06-02T19:21:34.309Z,4.87
2018-06-02T19:24:00.409Z,5.30
2018-06-02T19:26:26.552Z,4.87
2018-06-02T19:28:52.684Z,5.17
2018-06-02T19:31:19.128Z,3.83
2018-06-02T19:33:45.232Z,4.40
2018-06-02T19:36:12.162Z,4.03
2018-06-02T19:38:38.289Z,3.60
2018-06-02T19:41:04.414Z,4.17
2018-06-02T19:43:30.499Z,5.90
2018-06-02T19:45:56.680Z,4.80
2018-06-02T19:48:22.857Z,5.40
2018-06-02T19:50:48.990Z,5.70
2018-06-02T19:53:15.097Z,5.40
2018-06-02T19:55:41.238Z,5.10
2018-06-02T19:58:07.354Z,5.00
2018-06-02T20:00:34.236Z,4.60
2018-06-02T20:03:00.340Z,5.23
2018-06-02T20:06:11.993Z,6.60
2018-06-02T20:08:39.328Z,4.43
2018-06-02T20:11:06.631Z,4.83
2018-06-02T20:13:33.936Z,4.50
2018-06-02T20:16:01.372Z,4.97
2018-06-02T20:18:28.669Z,5.50
2018-06-02T20:20:55.979Z,6.67
2018-06-02T20:23:23.324Z,4.80
2018-06-02T20:25:50.670Z,4.00
2018-06-02T20:28:17.982Z,6.13
2018-06-02T20:30:45.305Z,5.40
2018-06-02T20:33:12.599Z,5.87
2018-06-02T20:35:39.915Z,6.00
2018-06-02T20:38:07.216Z,5.33
2018-06-02T20:40:34.616Z,7.13
2018-06-02T20:43:01.946Z,6.30
2018-06-02T20:45:29.377Z,4.83
2018-06-02T20:47:56.725Z,6.63
2018-06-02T20:50:24.220Z,6.77
2018-06-02T20:52:51.551Z,6.80
2018-06-02T20:55:18.861Z,6.07
2018-06-02T20:57:46.153Z,5.93
2018-06-02T21:00:13.445Z,5.43
2018-06-02T21:02:40.713Z,6.03
2018-06-02T21:05:08.124Z,6.97
2018-06-02T21:07:35.452Z,5.90
2018-06-02T21:10:02.784Z,5.77
2018-06-02T21:12:30.185Z,4.90
2018-06-02T21:14:57.504Z,5.77
2018-06-02T21:17:24.794Z,5.63
2018-06-02T21:19:52.192Z,6.87
2018-06-02T21:22:19.499Z,6.07
2018-06-02T21:24:46.811Z,6.70
2018-06-02T21:27:14.079Z,6.90
2018-06-02T21:29:41.330Z,6.20
2018-06-02T21:32:08.652Z,6.23
2018-06-02T21:34:35.927Z,6.00
2018-06-02T21:37:03.223Z,5.60
2018-06-02T21:39:30.509Z,6.37
2018-06-02T21:41:57.809Z,7.20
2018-06-02T21:44:25.161Z,6.80
2018-06-02T21:46:52.479Z,8.30
2018-06-02T21:49:19.778Z,7.17
2018-06-02T21:51:47.094Z,5.63
2018-06-02T21:54:14.408Z,5.23
2018-06-02T21:56:41.785Z,8.60
2018-06-02T21:59:09.070Z,6.67
2018-06-02T22:01:36.349Z,6.37
2018-06-02T22:04:03.653Z,6.03
2018-06-02T22:06:31.000Z,7.70
2018-06-02T22:08:58.389Z,6.00
2018-06-02T22:11:25.758Z,5.50
2018-06-02T22:13:53.109Z,8.20
2018-06-02T22:16:20.484Z,7.33
2018-06-02T22:18:47.783Z,7.73
2018-06-02T22:21:15.036Z,6.60
2018-06-02T22:23:42.321Z,5.93
2018-06-02T22:26:09.632Z,5.60
2018-06-02T22:28:36.959Z,7.10
2018-06-02T22:31:04.265Z,7.40
2018-06-02T22:33:31.556Z,6.30
2018-06-02T22:35:58.860Z,6.57
2018-06-02T22:38:26.189Z,6.70
2018-06-02T22:40:53.736Z,7.43
2018-06-02T22:43:21.069Z,6.43
2018-06-02T22:45:48.364Z,6.97
2018-06-02T22:48:15.646Z,11.73
2018-06-02T22:50:42.969Z,7.60
2018-06-02T22:53:10.318Z,7.63
2018-06-02T22:55:37.697Z,7.17
2018-06-02T22:58:04.997Z,7.30
2018-06-02T23:00:32.416Z,6.80
2018-06-02T23:02:59.759Z,6.03
2018-06-02T23:05:27.048Z,7.07
2018-06-02T23:07:54.460Z,6.40
2018-06-02T23:10:21.760Z,6.47
2018-06-02T23:12:49.053Z,6.53
2018-06-02T23:15:16.485Z,10.07
2018-06-02T23:17:43.815Z,7.40
2018-06-02T23:20:11.156Z,7.50
2018-06-02T23:22:39.520Z,8.70
2018-06-02T23:25:07.075Z,8.23
2018-06-02T23:27:34.436Z,8.13
2018-06-02T23:30:01.805Z,8.40
2018-06-02T23:32:29.101Z,7.83
2018-06-02T23:34:56.384Z,7.77
2018-06-02T23:37:23.670Z,9.80
2018-06-02T23:39:50.982Z,10.40
2018-06-02T23:42:18.294Z,7.63
2018-06-02T23:44:45.593Z,6.60
2018-06-02T23:47:12.884Z,8.60
2018-06-02T23:49:40.210Z,7.57
2018-06-02T23:52:07.534Z,10.90
2018-06-02T23:54:34.820Z,7.90
2018-06-02T23:57:02.106Z,8.90
2018-06-02T23:59:29.394Z,7.13
